sensor_id;sensor_type;location;lat;lon;timestamp;pressure;altitude;pressure_sealevel;temperature;humidity
53900;BME280;40509;32.858;-116.858;2023-04-27T00:02:03;97748.22;;;23.41;46.93
53900;BME280;40509;32.858;-116.858;2023-04-27T00:04:30;97750.53;;;23.44;46.70
53900;BME280;40509;32.858;-116.858;2023-04-27T00:06:58;97756.44;;;23.46;47.03
53900;BME280;40509;32.858;-116.858;2023-04-27T00:09:26;97754.16;;;23.43;46.73
53900;BME280;40509;32.858;-116.858;2023-04-27T00:11:53;97752.84;;;23.47;46.68
53900;BME280;40509;32.858;-116.858;2023-04-27T00:14:21;97760.56;;;23.49;47.14
53900;BME280;40509;32.858;-116.858;2023-04-27T00:16:48;97752.31;;;23.52;46.62
53900;BME280;40509;32.858;-116.858;2023-04-27T00:19:15;97744.25;;;23.53;47.06
53900;BME280;40509;32.858;-116.858;2023-04-27T00:21:43;97747.53;;;23.55;47.07
53900;BME280;40509;32.858;-116.858;2023-04-27T00:24:10;97752.81;;;23.55;47.13
53900;BME280;40509;32.858;-116.858;2023-04-27T00:26:37;97752.81;;;23.55;46.78
53900;BME280;40509;32.858;-116.858;2023-04-27T00:29:05;97753.63;;;23.56;46.79
53900;BME280;40509;32.858;-116.858;2023-04-27T00:31:32;97753.63;;;23.56;46.74
53900;BME280;40509;32.858;-116.858;2023-04-27T00:33:59;97756.94;;;23.58;47.19
53900;BME280;40509;32.858;-116.858;2023-04-27T00:36:26;97753.78;;;23.54;47.09
53900;BME280;40509;32.858;-116.858;2023-04-27T00:38:53;97753.16;;;23.52;47.25
53900;BME280;40509;32.858;-116.858;2023-04-27T00:41:21;97759.38;;;23.60;47.46
53900;BME280;40509;32.858;-116.858;2023-04-27T00:43:48;97755.44;;;23.55;47.60
53900;BME280;40509;32.858;-116.858;2023-04-27T00:46:16;97754.28;;;23.58;47.76
53900;BME280;40509;32.858;-116.858;2023-04-27T00:48:45;97756.75;;;23.60;47.79
53900;BME280;40509;32.858;-116.858;2023-04-27T00:51:13;97757.91;;;23.57;48.27
53900;BME280;40509;32.858;-116.858;2023-04-27T00:53:40;97754.78;;;23.53;48.73
53900;BME280;40509;32.858;-116.858;2023-04-27T00:56:08;97754.13;;;23.51;48.95
53900;BME280;40509;32.858;-116.858;2023-04-27T00:58:35;97754.50;;;23.40;49.15
53900;BME280;40509;32.858;-116.858;2023-04-27T01:01:03;97758.59;;;23.34;49.28
53900;BME280;40509;32.858;-116.858;2023-04-27T01:03:31;97757.75;;;23.50;48.52
53900;BME280;40509;32.858;-116.858;2023-04-27T01:06:00;97758.44;;;23.52;48.38
53900;BME280;40509;32.858;-116.858;2023-04-27T01:08:28;97759.78;;;23.40;49.30
53900;BME280;40509;32.858;-116.858;2023-04-27T01:10:56;97759.91;;;23.47;49.02
53900;BME280;40509;32.858;-116.858;2023-04-27T01:13:23;97762.91;;;23.19;48.98
53900;BME280;40509;32.858;-116.858;2023-04-27T01:15:50;97760.59;;;23.32;49.17
53900;BME280;40509;32.858;-116.858;2023-04-27T01:18:17;97764.00;;;23.49;48.75
53900;BME280;40509;32.858;-116.858;2023-04-27T01:20:45;97771.28;;;23.47;48.71
53900;BME280;40509;32.858;-116.858;2023-04-27T01:23:13;97766.50;;;23.51;48.98
53900;BME280;40509;32.858;-116.858;2023-04-27T01:25:42;97766.50;;;23.51;49.09
53900;BME280;40509;32.858;-116.858;2023-04-27T01:28:09;97768.28;;;23.50;49.58
53900;BME280;40509;32.858;-116.858;2023-04-27T01:30:37;97767.16;;;23.53;49.10
53900;BME280;40509;32.858;-116.858;2023-04-27T01:33:05;97769.00;;;23.44;49.26
53900;BME280;40509;32.858;-116.858;2023-04-27T01:35:32;97766.66;;;23.49;48.84
53900;BME280;40509;32.858;-116.858;2023-04-27T01:38:00;97770.94;;;23.42;49.16
53900;BME280;40509;32.858;-116.858;2023-04-27T01:40:28;97780.50;;;23.35;49.42
53900;BME280;40509;32.858;-116.858;2023-04-27T01:42:56;97774.91;;;23.46;49.35
53900;BME280;40509;32.858;-116.858;2023-04-27T01:45:23;97782.47;;;23.33;49.51
53900;BME280;40509;32.858;-116.858;2023-04-27T01:47:51;97780.19;;;23.30;49.55
53900;BME280;40509;32.858;-116.858;2023-04-27T01:50:20;97782.81;;;23.21;49.83
53900;BME280;40509;32.858;-116.858;2023-04-27T01:52:47;97783.97;;;23.19;49.85
53900;BME280;40509;32.858;-116.858;2023-04-27T01:55:14;97782.31;;;23.10;49.90
53900;BME280;40509;32.858;-116.858;2023-04-27T01:57:42;97776.53;;;23.06;49.80
53900;BME280;40509;32.858;-116.858;2023-04-27T02:00:09;97779.03;;;23.07;49.85
53900;BME280;40509;32.858;-116.858;2023-04-27T02:02:48;97787.94;;;23.15;49.81
53900;BME280;40509;32.858;-116.858;2023-04-27T02:05:19;97789.38;;;23.01;49.77
53900;BME280;40509;32.858;-116.858;2023-04-27T02:07:48;97786.75;;;23.01;50.25
53900;BME280;40509;32.858;-116.858;2023-04-27T02:10:15;97793.34;;;23.05;50.11
53900;BME280;40509;32.858;-116.858;2023-04-27T02:12:42;97804.38;;;23.17;50.03
53900;BME280;40509;32.858;-116.858;2023-04-27T02:15:10;97811.47;;;23.16;50.01
53900;BME280;40509;32.858;-116.858;2023-04-27T02:17:38;97816.53;;;23.01;50.03
53900;BME280;40509;32.858;-116.858;2023-04-27T02:20:06;97812.91;;;22.94;50.36
53900;BME280;40509;32.858;-116.858;2023-04-27T02:22:34;97816.53;;;22.93;50.32
53900;BME280;40509;32.858;-116.858;2023-04-27T02:25:02;97820.47;;;22.89;50.65
53900;BME280;40509;32.858;-116.858;2023-04-27T02:27:29;97826.22;;;22.93;50.32
53900;BME280;40509;32.858;-116.858;2023-04-27T02:29:57;97825.19;;;22.69;50.75
53900;BME280;40509;32.858;-116.858;2023-04-27T02:32:24;97826.69;;;22.80;51.03
53900;BME280;40509;32.858;-116.858;2023-04-27T02:34:52;97838.69;;;22.74;50.70
53900;BME280;40509;32.858;-116.858;2023-04-27T02:37:20;97833.09;;;22.69;51.14
53900;BME280;40509;32.858;-116.858;2023-04-27T02:39:48;97843.97;;;22.82;50.64
53900;BME280;40509;32.858;-116.858;2023-04-27T02:42:16;97850.00;;;22.66;51.05
53900;BME280;40509;32.858;-116.858;2023-04-27T02:44:44;97854.13;;;22.69;50.92
53900;BME280;40509;32.858;-116.858;2023-04-27T02:47:11;97859.25;;;22.87;50.37
53900;BME280;40509;32.858;-116.858;2023-04-27T02:49:39;97858.97;;;22.90;49.83
53900;BME280;40509;32.858;-116.858;2023-04-27T02:52:06;97855.03;;;22.94;50.50
53900;BME280;40509;32.858;-116.858;2023-04-27T02:54:34;97853.47;;;22.67;51.38
53900;BME280;40509;32.858;-116.858;2023-04-27T02:57:01;97859.22;;;22.62;51.04
53900;BME280;40509;32.858;-116.858;2023-04-27T02:59:28;97865.16;;;22.72;50.77
53900;BME280;40509;32.858;-116.858;2023-04-27T03:01:56;97868.94;;;22.70;50.76
53900;BME280;40509;32.858;-116.858;2023-04-27T03:04:23;97860.25;;;22.78;50.64
53900;BME280;40509;32.858;-116.858;2023-04-27T03:06:50;97863.06;;;22.84;50.32
53900;BME280;40509;32.858;-116.858;2023-04-27T03:09:18;97855.81;;;22.86;50.26
53900;BME280;40509;32.858;-116.858;2023-04-27T03:11:45;97858.81;;;22.92;50.00
53900;BME280;40509;32.858;-116.858;2023-04-27T03:14:12;97868.44;;;22.74;50.46
53900;BME280;40509;32.858;-116.858;2023-04-27T03:16:39;97867.16;;;22.87;49.69
53900;BME280;40509;32.858;-116.858;2023-04-27T03:19:07;97869.47;;;22.82;50.40
53900;BME280;40509;32.858;-116.858;2023-04-27T03:21:34;97873.44;;;22.86;50.03
53900;BME280;40509;32.858;-116.858;2023-04-27T03:24:02;97873.91;;;22.89;50.59
53900;BME280;40509;32.858;-116.858;2023-04-27T03:26:29;97867.69;;;22.99;50.32
53900;BME280;40509;32.858;-116.858;2023-04-27T03:28:57;97869.50;;;22.98;49.80
53900;BME280;40509;32.858;-116.858;2023-04-27T03:31:28;97870.81;;;22.94;50.00
53900;BME280;40509;32.858;-116.858;2023-04-27T03:33:55;97867.88;;;23.05;50.21
53900;BME280;40509;32.858;-116.858;2023-04-27T03:36:22;97876.09;;;22.94;50.26
53900;BME280;40509;32.858;-116.858;2023-04-27T03:38:49;97875.59;;;22.99;49.56
53900;BME280;40509;32.858;-116.858;2023-04-27T03:41:17;97885.13;;;22.92;50.71
53900;BME280;40509;32.858;-116.858;2023-04-27T03:43:44;97883.31;;;22.92;50.30
53900;BME280;40509;32.858;-116.858;2023-04-27T03:46:17;97881.00;;;22.89;50.72
53900;BME280;40509;32.858;-116.858;2023-04-27T03:48:44;97881.00;;;22.89;50.57
53900;BME280;40509;32.858;-116.858;2023-04-27T03:51:13;97883.09;;;22.77;51.22
53900;BME280;40509;32.858;-116.858;2023-04-27T03:53:43;97886.75;;;22.84;51.06
53900;BME280;40509;32.858;-116.858;2023-04-27T03:56:11;97885.28;;;22.90;50.64
53900;BME280;40509;32.858;-116.858;2023-04-27T03:58:47;97883.81;;;22.96;50.96
53900;BME280;40509;32.858;-116.858;2023-04-27T04:01:27;97886.28;;;22.97;50.95
53900;BME280;40509;32.858;-116.858;2023-04-27T04:03:57;97887.78;;;23.00;51.19
53900;BME280;40509;32.858;-116.858;2023-04-27T04:06:25;97889.28;;;23.11;50.62
53900;BME280;40509;32.858;-116.858;2023-04-27T04:08:54;97890.47;;;23.16;50.54
53900;BME280;40509;32.858;-116.858;2023-04-27T04:11:24;97889.31;;;23.19;50.44
53900;BME280;40509;32.858;-116.858;2023-04-27T04:13:59;97893.44;;;23.21;50.42
53900;BME280;40509;32.858;-116.858;2023-04-27T04:16:29;97888.50;;;23.18;50.94
53900;BME280;40509;32.858;-116.858;2023-04-27T04:18:56;97892.28;;;23.16;50.99
53900;BME280;40509;32.858;-116.858;2023-04-27T04:21:24;97886.47;;;23.12;50.79
53900;BME280;40509;32.858;-116.858;2023-04-27T04:23:51;97897.00;;;23.12;51.25
53900;BME280;40509;32.858;-116.858;2023-04-27T04:26:19;97894.53;;;23.11;51.33
53900;BME280;40509;32.858;-116.858;2023-04-27T04:28:46;97891.75;;;23.12;50.99
53900;BME280;40509;32.858;-116.858;2023-04-27T04:31:13;97890.78;;;23.13;51.00
53900;BME280;40509;32.858;-116.858;2023-04-27T04:33:43;97889.09;;;23.12;51.29
53900;BME280;40509;32.858;-116.858;2023-04-27T04:36:10;97896.06;;;23.13;50.95
53900;BME280;40509;32.858;-116.858;2023-04-27T04:38:37;97891.75;;;23.12;51.08
53900;BME280;40509;32.858;-116.858;2023-04-27T04:41:05;97899.63;;;23.12;51.31
53900;BME280;40509;32.858;-116.858;2023-04-27T04:43:33;97897.97;;;23.11;51.52
53900;BME280;40509;32.858;-116.858;2023-04-27T04:46:03;97898.16;;;23.10;51.57
53900;BME280;40509;32.858;-116.858;2023-04-27T04:48:30;97906.88;;;23.10;51.46
53900;BME280;40509;32.858;-116.858;2023-04-27T04:50:58;97901.81;;;23.17;50.80
53900;BME280;40509;32.858;-116.858;2023-04-27T04:53:25;97909.06;;;23.15;50.61
53900;BME280;40509;32.858;-116.858;2023-04-27T04:55:55;97902.78;;;23.07;50.79
53900;BME280;40509;32.858;-116.858;2023-04-27T04:58:22;97910.31;;;23.02;51.10
53900;BME280;40509;32.858;-116.858;2023-04-27T05:00:49;97906.22;;;23.08;51.22
53900;BME280;40509;32.858;-116.858;2023-04-27T05:03:17;97908.03;;;23.07;51.15
53900;BME280;40509;32.858;-116.858;2023-04-27T05:05:44;97914.75;;;23.02;51.88
53900;BME280;40509;32.858;-116.858;2023-04-27T05:08:11;97913.94;;;23.01;51.51
53900;BME280;40509;32.858;-116.858;2023-04-27T05:10:39;97908.34;;;23.04;52.08
53900;BME280;40509;32.858;-116.858;2023-04-27T05:13:06;97914.91;;;23.08;51.90
53900;BME280;40509;32.858;-116.858;2023-04-27T05:15:33;97912.97;;;23.11;52.73
53900;BME280;40509;32.858;-116.858;2023-04-27T05:18:00;97913.78;;;23.11;51.93
53900;BME280;40509;32.858;-116.858;2023-04-27T05:20:27;97910.81;;;23.06;52.32
53900;BME280;40509;32.858;-116.858;2023-04-27T05:22:54;97912.28;;;23.00;53.15
53900;BME280;40509;32.858;-116.858;2023-04-27T05:25:22;97911.63;;;22.98;53.45
53900;BME280;40509;32.858;-116.858;2023-04-27T05:27:49;97917.72;;;22.99;53.42
53900;BME280;40509;32.858;-116.858;2023-04-27T05:30:16;97909.81;;;22.99;53.39
53900;BME280;40509;32.858;-116.858;2023-04-27T05:32:44;97907.84;;;23.01;53.04
53900;BME280;40509;32.858;-116.858;2023-04-27T05:35:12;97906.53;;;23.05;53.45
53900;BME280;40509;32.858;-116.858;2023-04-27T05:37:39;97907.19;;;23.07;53.11
53900;BME280;40509;32.858;-116.858;2023-04-27T05:40:07;97902.97;;;23.14;52.91
53900;BME280;40509;32.858;-116.858;2023-04-27T05:42:37;97908.50;;;23.11;52.80
53900;BME280;40509;32.858;-116.858;2023-04-27T05:45:06;97909.34;;;23.12;53.00
53900;BME280;40509;32.858;-116.858;2023-04-27T05:47:33;97912.16;;;23.10;52.61
53900;BME280;40509;32.858;-116.858;2023-04-27T05:50:00;97900.59;;;23.03;52.66
53900;BME280;40509;32.858;-116.858;2023-04-27T05:52:27;97908.03;;;23.07;52.95
53900;BME280;40509;32.858;-116.858;2023-04-27T05:54:57;97900.78;;;23.01;52.77
53900;BME280;40509;32.858;-116.858;2023-04-27T05:57:24;97898.75;;;22.95;53.42
53900;BME280;40509;32.858;-116.858;2023-04-27T05:59:52;97895.84;;;22.98;52.95
53900;BME280;40509;32.858;-116.858;2023-04-27T06:02:21;97899.44;;;22.97;52.82
53900;BME280;40509;32.858;-116.858;2023-04-27T06:04:49;97897.50;;;22.99;52.71
53900;BME280;40509;32.858;-116.858;2023-04-27T06:07:17;97896.66;;;22.99;52.97
53900;BME280;40509;32.858;-116.858;2023-04-27T06:09:44;97894.34;;;22.96;53.17
53900;BME280;40509;32.858;-116.858;2023-04-27T06:12:12;97891.88;;;22.94;52.86
53900;BME280;40509;32.858;-116.858;2023-04-27T06:14:39;97896.81;;;22.97;52.59
53900;BME280;40509;32.858;-116.858;2023-04-27T06:17:06;97889.41;;;22.93;52.81
53900;BME280;40509;32.858;-116.858;2023-04-27T06:19:33;97883.31;;;22.92;52.79
53900;BME280;40509;32.858;-116.858;2023-04-27T06:22:00;97886.91;;;22.91;53.04
53900;BME280;40509;32.858;-116.858;2023-04-27T06:24:29;97892.19;;;22.91;52.80
53900;BME280;40509;32.858;-116.858;2023-04-27T06:26:56;97889.41;;;22.93;52.52
53900;BME280;40509;32.858;-116.858;2023-04-27T06:29:23;97878.91;;;23.01;52.15
53900;BME280;40509;32.858;-116.858;2023-04-27T06:31:50;97883.66;;;23.05;51.80
53900;BME280;40509;32.858;-116.858;2023-04-27T06:34:18;97884.34;;;23.07;51.53
53900;BME280;40509;32.858;-116.858;2023-04-27T06:36:46;97884.47;;;23.06;51.43
53900;BME280;40509;32.858;-116.858;2023-04-27T06:39:14;97881.19;;;23.04;51.80
53900;BME280;40509;32.858;-116.858;2023-04-27T06:41:41;97884.00;;;23.02;51.56
53900;BME280;40509;32.858;-116.858;2023-04-27T06:44:18;97894.19;;;23.05;51.75
53900;BME280;40509;32.858;-116.858;2023-04-27T06:46:45;97882.00;;;23.04;51.61
53900;BME280;40509;32.858;-116.858;2023-04-27T06:49:12;97884.81;;;23.03;51.64
53900;BME280;40509;32.858;-116.858;2023-04-27T06:51:39;97887.44;;;22.95;51.84
53900;BME280;40509;32.858;-116.858;2023-04-27T06:54:07;97883.47;;;22.99;51.35
53900;BME280;40509;32.858;-116.858;2023-04-27T06:56:35;97886.28;;;22.97;51.54
53900;BME280;40509;32.858;-116.858;2023-04-27T06:59:02;97885.78;;;23.02;51.42
53900;BME280;40509;32.858;-116.858;2023-04-27T07:01:29;97884.31;;;22.99;51.42
53900;BME280;40509;32.858;-116.858;2023-04-27T07:03:56;97881.34;;;23.02;51.25
53900;BME280;40509;32.858;-116.858;2023-04-27T07:06:23;97882.97;;;22.95;51.46
53900;BME280;40509;32.858;-116.858;2023-04-27T07:08:52;97880.19;;;22.97;51.09
53900;BME280;40509;32.858;-116.858;2023-04-27T07:11:19;97877.06;;;23.01;50.96
53900;BME280;40509;32.858;-116.858;2023-04-27T07:13:46;97887.44;;;23.03;50.78
53900;BME280;40509;32.858;-116.858;2023-04-27T07:16:14;97881.19;;;23.04;50.82
53900;BME280;40509;32.858;-116.858;2023-04-27T07:18:42;97884.00;;;23.02;51.01
53900;BME280;40509;32.858;-116.858;2023-04-27T07:21:10;97879.84;;;22.92;51.49
53900;BME280;40509;32.858;-116.858;2023-04-27T07:23:38;97875.75;;;22.97;51.49
53900;BME280;40509;32.858;-116.858;2023-04-27T07:26:07;97872.91;;;22.82;51.33
53900;BME280;40509;32.858;-116.858;2023-04-27T07:28:35;97869.50;;;22.90;51.14
53900;BME280;40509;32.858;-116.858;2023-04-27T07:31:04;97870.47;;;22.89;51.01
53900;BME280;40509;32.858;-116.858;2023-04-27T07:33:34;97876.72;;;22.88;51.43
53900;BME280;40509;32.858;-116.858;2023-04-27T07:36:02;97877.84;;;22.85;51.37
53900;BME280;40509;32.858;-116.858;2023-04-27T07:38:30;97872.91;;;22.82;51.71
53900;BME280;40509;32.858;-116.858;2023-04-27T07:41:00;97887.75;;;22.83;51.54
53900;BME280;40509;32.858;-116.858;2023-04-27T07:43:33;97884.75;;;22.78;51.38
53900;BME280;40509;32.858;-116.858;2023-04-27T07:46:01;97881.97;;;22.80;51.26
53900;BME280;40509;32.858;-116.858;2023-04-27T07:48:29;97885.41;;;22.80;51.38
53900;BME280;40509;32.858;-116.858;2023-04-27T07:50:56;97890.19;;;22.77;51.52
53900;BME280;40509;32.858;-116.858;2023-04-27T07:53:23;97886.41;;;22.79;51.14
53900;BME280;40509;32.858;-116.858;2023-04-27T07:55:50;97885.72;;;22.77;51.32
53900;BME280;40509;32.858;-116.858;2023-04-27T07:58:17;97884.91;;;22.77;51.32
53900;BME280;40509;32.858;-116.858;2023-04-27T08:00:46;97876.50;;;22.73;51.59
53900;BME280;40509;32.858;-116.858;2023-04-27T08:03:13;97875.88;;;22.71;51.38
53900;BME280;40509;32.858;-116.858;2023-04-27T08:05:40;97868.63;;;22.73;51.56
53900;BME280;40509;32.858;-116.858;2023-04-27T08:08:07;97863.19;;;22.74;51.01
53900;BME280;40509;32.858;-116.858;2023-04-27T08:10:35;97860.88;;;22.71;51.23
53900;BME280;40509;32.858;-116.858;2023-04-27T08:13:03;97848.06;;;22.77;50.79
53900;BME280;40509;32.858;-116.858;2023-04-27T08:15:30;97852.66;;;22.66;51.15
53900;BME280;40509;32.858;-116.858;2023-04-27T08:17:58;97844.56;;;22.60;51.53
53900;BME280;40509;32.858;-116.858;2023-04-27T08:20:25;97840.63;;;22.64;51.20
53900;BME280;40509;32.858;-116.858;2023-04-27T08:22:52;97840.16;;;22.68;50.91
53900;BME280;40509;32.858;-116.858;2023-04-27T08:25:20;97841.63;;;22.63;51.01
53900;BME280;40509;32.858;-116.858;2023-04-27T08:27:47;97842.78;;;22.60;51.44
53900;BME280;40509;32.858;-116.858;2023-04-27T08:30:14;97843.44;;;22.62;51.28
53900;BME280;40509;32.858;-116.858;2023-04-27T08:32:42;97839.13;;;22.61;51.42
53900;BME280;40509;32.858;-116.858;2023-04-27T08:35:09;97849.19;;;22.58;51.66
53900;BME280;40509;32.858;-116.858;2023-04-27T08:37:37;97855.78;;;22.62;50.97
53900;BME280;40509;32.858;-116.858;2023-04-27T08:40:06;97850.00;;;22.58;51.41
53900;BME280;40509;32.858;-116.858;2023-04-27T08:42:35;97848.03;;;22.60;51.11
53900;BME280;40509;32.858;-116.858;2023-04-27T08:45:05;97847.84;;;22.53;51.06
53900;BME280;40509;32.858;-116.858;2023-04-27T08:47:34;97851.13;;;22.55;51.28
53900;BME280;40509;32.858;-116.858;2023-04-27T08:50:02;97848.84;;;22.61;51.16
53900;BME280;40509;32.858;-116.858;2023-04-27T08:52:29;97840.94;;;22.52;51.22
53900;BME280;40509;32.858;-116.858;2023-04-27T08:54:57;97843.91;;;22.49;51.14
53900;BME280;40509;32.858;-116.858;2023-04-27T08:57:24;97837.50;;;22.52;51.38
53900;BME280;40509;32.858;-116.858;2023-04-27T08:59:58;97835.69;;;22.52;51.15
53900;BME280;40509;32.858;-116.858;2023-04-27T09:02:45;97835.31;;;22.47;51.27
53900;BME280;40509;32.858;-116.858;2023-04-27T09:05:17;97835.50;;;22.46;51.48
53900;BME280;40509;32.858;-116.858;2023-04-27T09:08:00;97837.50;;;22.52;51.07
53900;BME280;40509;32.858;-116.858;2023-04-27T09:10:28;97833.84;;;22.45;51.03
53900;BME280;40509;32.858;-116.858;2023-04-27T09:12:58;97825.78;;;22.46;51.19
53900;BME280;40509;32.858;-116.858;2023-04-27T09:15:27;97824.63;;;22.40;51.26
53900;BME280;40509;32.858;-116.858;2023-04-27T09:17:56;97821.81;;;22.42;51.34
53900;BME280;40509;32.858;-116.858;2023-04-27T09:20:23;97817.69;;;22.39;51.36
53900;BME280;40509;32.858;-116.858;2023-04-27T09:22:53;97821.50;;;22.37;51.28
53900;BME280;40509;32.858;-116.858;2023-04-27T09:25:29;97821.28;;;22.30;51.65
53900;BME280;40509;32.858;-116.858;2023-04-27T09:27:59;97818.47;;;22.32;51.30
53900;BME280;40509;32.858;-116.858;2023-04-27T09:30:27;97814.03;;;22.32;51.25
53900;BME280;40509;32.858;-116.858;2023-04-27T09:32:59;97813.88;;;22.34;51.31
53900;BME280;40509;32.858;-116.858;2023-04-27T09:35:32;97813.75;;;22.35;51.15
53900;BME280;40509;32.858;-116.858;2023-04-27T09:38:00;97807.97;;;22.32;51.43
53900;BME280;40509;32.858;-116.858;2023-04-27T09:40:28;97817.16;;;22.28;51.13
53900;BME280;40509;32.858;-116.858;2023-04-27T09:43:00;97811.22;;;22.26;51.06
53900;BME280;40509;32.858;-116.858;2023-04-27T09:45:27;97811.91;;;22.28;51.10
53900;BME280;40509;32.858;-116.858;2023-04-27T09:47:55;97811.03;;;22.19;51.64
53900;BME280;40509;32.858;-116.858;2023-04-27T09:50:23;97812.50;;;22.21;51.36
53900;BME280;40509;32.858;-116.858;2023-04-27T09:52:51;97813.34;;;22.22;51.22
53900;BME280;40509;32.858;-116.858;2023-04-27T09:55:28;97811.72;;;22.21;50.86
53900;BME280;40509;32.858;-116.858;2023-04-27T09:58:30;97816.13;;;22.20;51.31
53900;BME280;40509;32.858;-116.858;2023-04-27T10:01:15;97821.69;;;22.17;51.29
53900;BME280;40509;32.858;-116.858;2023-04-27T10:03:55;97823.53;;;22.17;51.34
53900;BME280;40509;32.858;-116.858;2023-04-27T10:09:33;97814.78;;;22.16;50.92
53900;BME280;40509;32.858;-116.858;2023-04-27T10:12:19;97814.78;;;22.16;51.27
53900;BME280;40509;32.858;-116.858;2023-04-27T10:14:58;97820.38;;;22.13;50.74
53900;BME280;40509;32.858;-116.858;2023-04-27T10:17:34;97827.28;;;22.14;50.70
53900;BME280;40509;32.858;-116.858;2023-04-27T10:20:04;97817.09;;;22.11;50.92
53900;BME280;40509;32.858;-116.858;2023-04-27T10:22:45;97818.72;;;22.12;50.95
53900;BME280;40509;32.858;-116.858;2023-04-27T10:25:20;97816.09;;;22.12;51.02
53900;BME280;40509;32.858;-116.858;2023-04-27T10:30:18;97809.66;;;22.06;51.01
53900;BME280;40509;32.858;-116.858;2023-04-27T10:32:51;97811.31;;;22.08;50.90
53900;BME280;40509;32.858;-116.858;2023-04-27T10:35:19;97807.88;;;22.07;50.89
53900;BME280;40509;32.858;-116.858;2023-04-27T10:37:49;97807.03;;;22.06;50.84
53900;BME280;40509;32.858;-116.858;2023-04-27T10:40:18;97807.19;;;22.05;50.93
53900;BME280;40509;32.858;-116.858;2023-04-27T10:42:46;97809.97;;;22.03;50.99
53900;BME280;40509;32.858;-116.858;2023-04-27T10:45:26;97809.81;;;22.05;50.78
53900;BME280;40509;32.858;-116.858;2023-04-27T10:47:57;97800.78;;;21.99;50.90
53900;BME280;40509;32.858;-116.858;2023-04-27T10:50:26;97795.34;;;22.01;50.79
53900;BME280;40509;32.858;-116.858;2023-04-27T10:52:58;97797.81;;;22.02;50.79
53900;BME280;40509;32.858;-116.858;2023-04-27T10:55:25;97792.72;;;22.01;50.66
53900;BME280;40509;32.858;-116.858;2023-04-27T10:57:54;97786.94;;;21.97;50.86
53900;BME280;40509;32.858;-116.858;2023-04-27T11:02:51;97787.94;;;21.96;50.96
53900;BME280;40509;32.858;-116.858;2023-04-27T11:05:21;97794.34;;;21.94;50.82
53900;BME280;40509;32.858;-116.858;2023-04-27T11:07:51;97792.88;;;21.99;50.47
53900;BME280;40509;32.858;-116.858;2023-04-27T11:10:19;97789.72;;;21.96;50.67
53900;BME280;40509;32.858;-116.858;2023-04-27T11:12:46;97789.56;;;21.97;50.64
53900;BME280;40509;32.858;-116.858;2023-04-27T11:15:13;97788.91;;;21.95;50.61
53900;BME280;40509;32.858;-116.858;2023-04-27T11:17:40;97788.91;;;21.95;50.67
53900;BME280;40509;32.858;-116.858;2023-04-27T11:20:08;97790.88;;;21.93;50.58
53900;BME280;40509;32.858;-116.858;2023-04-27T11:22:53;97792.69;;;21.93;50.68
53900;BME280;40509;32.858;-116.858;2023-04-27T11:25:30;97785.78;;;21.92;50.63
53900;BME280;40509;32.858;-116.858;2023-04-27T11:27:57;97784.97;;;21.91;50.76
53900;BME280;40509;32.858;-116.858;2023-04-27T11:30:25;97789.53;;;21.89;50.61
53900;BME280;40509;32.858;-116.858;2023-04-27T11:32:52;97786.09;;;21.88;50.76
53900;BME280;40509;32.858;-116.858;2023-04-27T11:35:31;97793.00;;;21.89;50.82
53900;BME280;40509;32.858;-116.858;2023-04-27T11:37:59;97796.94;;;21.85;50.78
53900;BME280;40509;32.858;-116.858;2023-04-27T11:40:26;97786.09;;;21.88;50.70
53900;BME280;40509;32.858;-116.858;2023-04-27T11:42:58;97798.56;;;21.86;50.72
53900;BME280;40509;32.858;-116.858;2023-04-27T11:45:29;97793.28;;;21.86;50.59
53900;BME280;40509;32.858;-116.858;2023-04-27T11:47:59;97803.47;;;21.81;50.86
53900;BME280;40509;32.858;-116.858;2023-04-27T11:50:27;97803.47;;;21.81;50.80
53900;BME280;40509;32.858;-116.858;2023-04-27T11:52:59;97800.97;;;21.80;50.64
53900;BME280;40509;32.858;-116.858;2023-04-27T11:55:26;97818.91;;;21.84;50.79
53900;BME280;40509;32.858;-116.858;2023-04-27T11:57:57;97814.97;;;21.80;50.73
53900;BME280;40509;32.858;-116.858;2023-04-27T12:00:25;97815.78;;;21.81;50.51
53900;BME280;40509;32.858;-116.858;2023-04-27T12:02:52;97812.16;;;21.82;50.48
53900;BME280;40509;32.858;-116.858;2023-04-27T12:05:20;97815.41;;;21.76;50.62
53900;BME280;40509;32.858;-116.858;2023-04-27T12:07:47;97814.59;;;21.75;50.66
53900;BME280;40509;32.858;-116.858;2023-04-27T12:10:14;97814.97;;;21.80;50.59
53900;BME280;40509;32.858;-116.858;2023-04-27T12:12:41;97812.78;;;21.76;50.56
53900;BME280;40509;32.858;-116.858;2023-04-27T12:15:09;97811.97;;;21.75;50.60
53900;BME280;40509;32.858;-116.858;2023-04-27T12:17:37;97816.41;;;21.75;50.71
53900;BME280;40509;32.858;-116.858;2023-04-27T12:20:05;97813.91;;;21.73;50.49
53900;BME280;40509;32.858;-116.858;2023-04-27T12:22:33;97811.44;;;21.71;50.69
53900;BME280;40509;32.858;-116.858;2023-04-27T12:25:00;97813.09;;;21.72;50.53
53900;BME280;40509;32.858;-116.858;2023-04-27T12:27:27;97814.75;;;21.73;50.59
53900;BME280;40509;32.858;-116.858;2023-04-27T12:29:54;97819.31;;;21.71;50.47
53900;BME280;40509;32.858;-116.858;2023-04-27T12:32:24;97821.94;;;21.71;50.32
53900;BME280;40509;32.858;-116.858;2023-04-27T12:34:51;97823.09;;;21.69;50.70
53900;BME280;40509;32.858;-116.858;2023-04-27T12:37:18;97815.88;;;21.71;50.47
53900;BME280;40509;32.858;-116.858;2023-04-27T12:39:47;97809.13;;;21.68;50.74
53900;BME280;40509;32.858;-116.858;2023-04-27T12:42:14;97810.44;;;21.64;50.59
53900;BME280;40509;32.858;-116.858;2023-04-27T12:44:45;97820.63;;;21.67;50.37
53900;BME280;40509;32.858;-116.858;2023-04-27T12:47:12;97812.88;;;21.66;50.49